ADDS METAR Data INFO
IDs: Format: Raw Decoded Include TAF

Data at: 0731 UTC 16 Jan 2018

METAR for:KDRT (Del Rio Intl, TX, US)
Text:KDRT 160653Z AUTO 34015G20KT 10SM OVC045 07/M01 A3046 RMK AO2 SLP308 T00721011
Temperature: 7.2°C ( 45°F)
Dewpoint: -1.1°C ( 30°F) [RH = 56%]
Pressure (altimeter):30.46 inches Hg (1031.6 mb) [Sea level pressure: 1030.8 mb]
Winds:from the NNW (340 degrees) at 17 MPH (15 knots; 7.7 m/s) gusting to 23 MPH (20 knots; 10.3 m/s)
Visibility:10 or more sm (16+ km)
Ceiling:4500 feet AGL
Clouds: overcast cloud deck at 4500 feet AGL
QC Flag:automated observation with no human augmentation